sensor_id;sensor_type;location;lat;lon;timestamp;P1;durP1;ratioP1;P2;durP2;ratioP2
82560;SDS011;72228;51.208;10.468;2024-02-04T00:01:47;5.68;;;2.92;;
82560;SDS011;72228;51.208;10.468;2024-02-04T00:04:13;5.68;;;2.72;;
82560;SDS011;72228;51.208;10.468;2024-02-04T00:06:39;5.20;;;3.03;;
82560;SDS011;72228;51.208;10.468;2024-02-04T00:09:05;5.45;;;3.17;;
82560;SDS011;72228;51.208;10.468;2024-02-04T00:11:32;5.65;;;2.58;;
82560;SDS011;72228;51.208;10.468;2024-02-04T00:13:58;4.97;;;3.08;;
82560;SDS011;72228;51.208;10.468;2024-02-04T00:16:24;5.57;;;2.75;;
82560;SDS011;72228;51.208;10.468;2024-02-04T00:18:50;4.68;;;2.58;;
82560;SDS011;72228;51.208;10.468;2024-02-04T00:21:16;5.05;;;2.53;;
82560;SDS011;72228;51.208;10.468;2024-02-04T00:23:42;5.85;;;3.08;;
82560;SDS011;72228;51.208;10.468;2024-02-04T00:26:08;6.32;;;3.10;;
82560;SDS011;72228;51.208;10.468;2024-02-04T00:28:34;6.30;;;3.08;;
82560;SDS011;72228;51.208;10.468;2024-02-04T00:31:00;4.80;;;2.60;;
82560;SDS011;72228;51.208;10.468;2024-02-04T00:33:26;3.78;;;2.45;;
82560;SDS011;72228;51.208;10.468;2024-02-04T00:35:52;6.57;;;2.55;;
82560;SDS011;72228;51.208;10.468;2024-02-04T00:38:18;4.70;;;2.22;;
82560;SDS011;72228;51.208;10.468;2024-02-04T00:40:43;4.20;;;2.33;;
82560;SDS011;72228;51.208;10.468;2024-02-04T00:43:09;3.75;;;2.05;;
82560;SDS011;72228;51.208;10.468;2024-02-04T00:45:35;3.75;;;2.40;;
82560;SDS011;72228;51.208;10.468;2024-02-04T00:48:03;4.68;;;2.65;;
82560;SDS011;72228;51.208;10.468;2024-02-04T00:50:30;5.90;;;2.72;;
82560;SDS011;72228;51.208;10.468;2024-02-04T00:52:55;4.05;;;2.42;;
82560;SDS011;72228;51.208;10.468;2024-02-04T00:55:22;3.78;;;2.00;;
82560;SDS011;72228;51.208;10.468;2024-02-04T00:57:48;4.88;;;2.75;;
82560;SDS011;72228;51.208;10.468;2024-02-04T01:00:14;4.45;;;2.70;;
82560;SDS011;72228;51.208;10.468;2024-02-04T01:02:40;4.57;;;2.72;;
82560;SDS011;72228;51.208;10.468;2024-02-04T01:05:07;4.70;;;2.78;;
82560;SDS011;72228;51.208;10.468;2024-02-04T01:07:33;4.07;;;2.30;;
82560;SDS011;72228;51.208;10.468;2024-02-04T01:09:59;5.18;;;2.63;;
82560;SDS011;72228;51.208;10.468;2024-02-04T01:12:25;7.35;;;2.88;;
82560;SDS011;72228;51.208;10.468;2024-02-04T01:14:51;4.38;;;2.65;;
82560;SDS011;72228;51.208;10.468;2024-02-04T01:17:17;4.18;;;2.17;;
82560;SDS011;72228;51.208;10.468;2024-02-04T01:19:43;4.22;;;2.60;;
82560;SDS011;72228;51.208;10.468;2024-02-04T01:22:10;6.60;;;2.80;;
82560;SDS011;72228;51.208;10.468;2024-02-04T01:24:37;5.35;;;3.10;;
82560;SDS011;72228;51.208;10.468;2024-02-04T01:27:03;5.30;;;2.42;;
82560;SDS011;72228;51.208;10.468;2024-02-04T01:29:29;5.72;;;2.72;;
82560;SDS011;72228;51.208;10.468;2024-02-04T01:31:55;4.97;;;2.83;;
82560;SDS011;72228;51.208;10.468;2024-02-04T01:34:21;7.53;;;3.10;;
82560;SDS011;72228;51.208;10.468;2024-02-04T01:36:47;4.75;;;3.00;;
82560;SDS011;72228;51.208;10.468;2024-02-04T01:39:13;6.43;;;2.90;;
82560;SDS011;72228;51.208;10.468;2024-02-04T01:41:40;5.07;;;2.42;;
82560;SDS011;72228;51.208;10.468;2024-02-04T01:44:06;6.47;;;2.67;;
82560;SDS011;72228;51.208;10.468;2024-02-04T01:46:32;5.97;;;2.90;;
82560;SDS011;72228;51.208;10.468;2024-02-04T01:48:58;5.15;;;2.58;;
82560;SDS011;72228;51.208;10.468;2024-02-04T01:51:25;9.43;;;2.90;;
82560;SDS011;72228;51.208;10.468;2024-02-04T01:53:51;3.83;;;2.33;;
82560;SDS011;72228;51.208;10.468;2024-02-04T01:56:18;4.50;;;2.65;;
82560;SDS011;72228;51.208;10.468;2024-02-04T01:58:45;5.25;;;2.40;;
82560;SDS011;72228;51.208;10.468;2024-02-04T02:01:12;3.78;;;2.40;;
82560;SDS011;72228;51.208;10.468;2024-02-04T02:03:38;4.20;;;2.00;;
82560;SDS011;72228;51.208;10.468;2024-02-04T02:06:05;4.15;;;2.22;;
82560;SDS011;72228;51.208;10.468;2024-02-04T02:08:32;4.40;;;2.40;;
82560;SDS011;72228;51.208;10.468;2024-02-04T02:14:03;3.33;;;2.25;;
82560;SDS011;72228;51.208;10.468;2024-02-04T02:16:32;4.80;;;2.35;;
82560;SDS011;72228;51.208;10.468;2024-02-04T02:21:50;4.03;;;2.38;;
82560;SDS011;72228;51.208;10.468;2024-02-04T02:26:58;5.70;;;2.88;;
82560;SDS011;72228;51.208;10.468;2024-02-04T02:29:24;6.05;;;3.33;;
82560;SDS011;72228;51.208;10.468;2024-02-04T02:31:50;3.63;;;2.25;;
82560;SDS011;72228;51.208;10.468;2024-02-04T02:34:17;5.65;;;2.92;;
82560;SDS011;72228;51.208;10.468;2024-02-04T02:36:54;4.35;;;2.47;;
82560;SDS011;72228;51.208;10.468;2024-02-04T02:39:26;4.30;;;2.17;;
82560;SDS011;72228;51.208;10.468;2024-02-04T02:41:59;5.93;;;2.75;;
82560;SDS011;72228;51.208;10.468;2024-02-04T02:44:26;4.18;;;2.40;;
82560;SDS011;72228;51.208;10.468;2024-02-04T02:46:54;4.35;;;2.42;;
82560;SDS011;72228;51.208;10.468;2024-02-04T02:49:24;4.20;;;2.40;;
82560;SDS011;72228;51.208;10.468;2024-02-04T02:51:50;6.63;;;3.00;;
82560;SDS011;72228;51.208;10.468;2024-02-04T02:54:18;5.45;;;2.80;;
82560;SDS011;72228;51.208;10.468;2024-02-04T02:56:45;6.43;;;2.80;;
82560;SDS011;72228;51.208;10.468;2024-02-04T02:59:11;4.93;;;2.53;;
82560;SDS011;72228;51.208;10.468;2024-02-04T03:01:40;4.53;;;2.70;;
82560;SDS011;72228;51.208;10.468;2024-02-04T03:04:06;3.88;;;2.50;;
82560;SDS011;72228;51.208;10.468;2024-02-04T03:06:32;6.55;;;2.80;;
82560;SDS011;72228;51.208;10.468;2024-02-04T03:08:59;4.30;;;2.58;;
82560;SDS011;72228;51.208;10.468;2024-02-04T03:11:25;6.05;;;2.80;;
82560;SDS011;72228;51.208;10.468;2024-02-04T03:13:51;5.82;;;2.92;;
82560;SDS011;72228;51.208;10.468;2024-02-04T03:16:17;5.85;;;2.97;;
82560;SDS011;72228;51.208;10.468;2024-02-04T03:18:43;3.78;;;2.22;;
82560;SDS011;72228;51.208;10.468;2024-02-04T03:21:15;4.38;;;2.92;;
82560;SDS011;72228;51.208;10.468;2024-02-04T03:23:42;3.90;;;2.50;;
82560;SDS011;72228;51.208;10.468;2024-02-04T03:26:11;4.40;;;2.42;;
82560;SDS011;72228;51.208;10.468;2024-02-04T03:28:41;3.97;;;2.30;;
82560;SDS011;72228;51.208;10.468;2024-02-04T03:31:08;3.80;;;2.50;;
82560;SDS011;72228;51.208;10.468;2024-02-04T03:33:34;4.63;;;2.40;;
82560;SDS011;72228;51.208;10.468;2024-02-04T03:36:00;4.13;;;2.20;;
82560;SDS011;72228;51.208;10.468;2024-02-04T03:38:26;3.58;;;2.45;;
82560;SDS011;72228;51.208;10.468;2024-02-04T03:40:53;4.75;;;2.83;;
82560;SDS011;72228;51.208;10.468;2024-02-04T03:43:20;3.90;;;2.38;;
82560;SDS011;72228;51.208;10.468;2024-02-04T03:45:46;9.57;;;2.40;;
82560;SDS011;72228;51.208;10.468;2024-02-04T03:48:13;2.40;;;1.55;;
82560;SDS011;72228;51.208;10.468;2024-02-04T03:50:39;3.42;;;2.13;;
82560;SDS011;72228;51.208;10.468;2024-02-04T03:53:04;3.88;;;2.05;;
82560;SDS011;72228;51.208;10.468;2024-02-04T03:55:31;3.15;;;2.00;;
82560;SDS011;72228;51.208;10.468;2024-02-04T03:57:58;2.42;;;1.55;;
82560;SDS011;72228;51.208;10.468;2024-02-04T04:00:24;2.38;;;1.70;;
82560;SDS011;72228;51.208;10.468;2024-02-04T04:02:51;3.03;;;2.00;;
82560;SDS011;72228;51.208;10.468;2024-02-04T04:05:18;3.10;;;1.63;;
82560;SDS011;72228;51.208;10.468;2024-02-04T04:07:46;3.13;;;2.05;;
82560;SDS011;72228;51.208;10.468;2024-02-04T04:10:12;6.78;;;1.67;;
82560;SDS011;72228;51.208;10.468;2024-02-04T04:12:38;2.65;;;1.60;;
82560;SDS011;72228;51.208;10.468;2024-02-04T04:15:05;1.90;;;1.38;;
82560;SDS011;72228;51.208;10.468;2024-02-04T04:17:31;2.00;;;1.42;;
82560;SDS011;72228;51.208;10.468;2024-02-04T04:19:57;1.70;;;1.30;;
82560;SDS011;72228;51.208;10.468;2024-02-04T04:22:23;2.40;;;1.70;;
82560;SDS011;72228;51.208;10.468;2024-02-04T04:24:49;7.32;;;1.35;;
82560;SDS011;72228;51.208;10.468;2024-02-04T04:27:15;2.45;;;1.42;;
82560;SDS011;72228;51.208;10.468;2024-02-04T04:29:44;1.83;;;1.27;;
82560;SDS011;72228;51.208;10.468;2024-02-04T04:32:10;2.45;;;1.38;;
82560;SDS011;72228;51.208;10.468;2024-02-04T04:34:37;1.75;;;1.30;;
82560;SDS011;72228;51.208;10.468;2024-02-04T04:37:04;2.08;;;1.30;;
82560;SDS011;72228;51.208;10.468;2024-02-04T04:39:30;1.02;;;0.93;;
82560;SDS011;72228;51.208;10.468;2024-02-04T04:41:56;2.65;;;1.40;;
82560;SDS011;72228;51.208;10.468;2024-02-04T04:44:24;1.42;;;1.10;;
82560;SDS011;72228;51.208;10.468;2024-02-04T04:46:50;2.20;;;1.60;;
82560;SDS011;72228;51.208;10.468;2024-02-04T04:49:16;1.27;;;1.08;;
82560;SDS011;72228;51.208;10.468;2024-02-04T04:51:45;2.15;;;1.20;;
82560;SDS011;72228;51.208;10.468;2024-02-04T04:54:14;1.13;;;0.90;;
82560;SDS011;72228;51.208;10.468;2024-02-04T04:56:40;1.42;;;1.08;;
82560;SDS011;72228;51.208;10.468;2024-02-04T04:59:07;1.38;;;0.80;;
82560;SDS011;72228;51.208;10.468;2024-02-04T05:01:33;1.55;;;0.90;;
82560;SDS011;72228;51.208;10.468;2024-02-04T05:03:59;1.10;;;1.00;;
82560;SDS011;72228;51.208;10.468;2024-02-04T05:06:25;0.77;;;0.63;;
82560;SDS011;72228;51.208;10.468;2024-02-04T05:08:52;1.60;;;1.15;;
82560;SDS011;72228;51.208;10.468;2024-02-04T05:11:18;1.30;;;1.00;;
82560;SDS011;72228;51.208;10.468;2024-02-04T05:13:44;1.83;;;0.75;;
82560;SDS011;72228;51.208;10.468;2024-02-04T05:16:10;1.20;;;1.08;;
82560;SDS011;72228;51.208;10.468;2024-02-04T05:18:36;1.00;;;0.70;;
82560;SDS011;72228;51.208;10.468;2024-02-04T05:21:02;1.35;;;0.80;;
82560;SDS011;72228;51.208;10.468;2024-02-04T05:23:30;0.73;;;0.60;;
82560;SDS011;72228;51.208;10.468;2024-02-04T05:25:56;1.58;;;0.90;;
82560;SDS011;72228;51.208;10.468;2024-02-04T05:28:22;1.25;;;0.80;;
82560;SDS011;72228;51.208;10.468;2024-02-04T05:30:48;0.82;;;0.80;;
82560;SDS011;72228;51.208;10.468;2024-02-04T05:33:16;0.63;;;0.47;;
82560;SDS011;72228;51.208;10.468;2024-02-04T05:35:42;1.08;;;0.98;;
82560;SDS011;72228;51.208;10.468;2024-02-04T05:38:09;0.77;;;0.50;;
82560;SDS011;72228;51.208;10.468;2024-02-04T05:40:35;2.53;;;1.00;;
82560;SDS011;72228;51.208;10.468;2024-02-04T05:43:01;0.77;;;0.65;;
82560;SDS011;72228;51.208;10.468;2024-02-04T05:45:51;0.88;;;0.70;;
82560;SDS011;72228;51.208;10.468;2024-02-04T05:48:17;0.85;;;0.70;;
82560;SDS011;72228;51.208;10.468;2024-02-04T05:50:43;1.85;;;0.73;;
82560;SDS011;72228;51.208;10.468;2024-02-04T05:53:09;1.02;;;0.90;;
82560;SDS011;72228;51.208;10.468;2024-02-04T05:55:34;1.00;;;0.82;;
82560;SDS011;72228;51.208;10.468;2024-02-04T05:58:00;1.25;;;1.02;;
82560;SDS011;72228;51.208;10.468;2024-02-04T06:00:26;0.93;;;0.52;;
82560;SDS011;72228;51.208;10.468;2024-02-04T06:02:52;0.45;;;0.45;;
82560;SDS011;72228;51.208;10.468;2024-02-04T06:05:18;0.20;;;0.20;;
82560;SDS011;72228;51.208;10.468;2024-02-04T06:07:44;0.90;;;0.70;;
82560;SDS011;72228;51.208;10.468;2024-02-04T06:10:10;1.85;;;0.75;;
82560;SDS011;72228;51.208;10.468;2024-02-04T06:12:36;0.80;;;0.80;;
82560;SDS011;72228;51.208;10.468;2024-02-04T06:15:03;1.35;;;0.95;;
82560;SDS011;72228;51.208;10.468;2024-02-04T06:17:30;1.17;;;0.88;;
82560;SDS011;72228;51.208;10.468;2024-02-04T06:19:56;1.35;;;0.95;;
82560;SDS011;72228;51.208;10.468;2024-02-04T06:22:25;0.80;;;0.60;;
82560;SDS011;72228;51.208;10.468;2024-02-04T06:24:51;1.38;;;0.85;;
82560;SDS011;72228;51.208;10.468;2024-02-04T06:27:16;1.15;;;0.77;;
82560;SDS011;72228;51.208;10.468;2024-02-04T06:29:42;1.38;;;1.00;;
82560;SDS011;72228;51.208;10.468;2024-02-04T06:32:08;1.23;;;0.80;;
82560;SDS011;72228;51.208;10.468;2024-02-04T06:34:34;1.50;;;0.98;;
82560;SDS011;72228;51.208;10.468;2024-02-04T06:37:00;1.80;;;0.98;;
82560;SDS011;72228;51.208;10.468;2024-02-04T06:39:25;1.88;;;1.05;;
82560;SDS011;72228;51.208;10.468;2024-02-04T06:41:51;1.75;;;1.25;;
82560;SDS011;72228;51.208;10.468;2024-02-04T06:44:19;2.08;;;1.10;;
82560;SDS011;72228;51.208;10.468;2024-02-04T06:46:45;2.05;;;1.30;;
82560;SDS011;72228;51.208;10.468;2024-02-04T06:49:11;1.98;;;1.40;;
82560;SDS011;72228;51.208;10.468;2024-02-04T06:51:43;2.58;;;1.90;;
82560;SDS011;72228;51.208;10.468;2024-02-04T06:54:10;1.50;;;1.23;;
82560;SDS011;72228;51.208;10.468;2024-02-04T06:56:36;1.35;;;1.20;;
82560;SDS011;72228;51.208;10.468;2024-02-04T06:59:02;1.85;;;1.10;;
82560;SDS011;72228;51.208;10.468;2024-02-04T07:01:28;2.00;;;1.30;;
82560;SDS011;72228;51.208;10.468;2024-02-04T07:03:54;1.98;;;1.38;;
82560;SDS011;72228;51.208;10.468;2024-02-04T07:06:20;1.65;;;1.25;;
82560;SDS011;72228;51.208;10.468;2024-02-04T07:08:46;2.35;;;1.73;;
82560;SDS011;72228;51.208;10.468;2024-02-04T07:11:11;2.10;;;1.65;;
82560;SDS011;72228;51.208;10.468;2024-02-04T07:13:37;2.83;;;1.35;;
82560;SDS011;72228;51.208;10.468;2024-02-04T07:16:03;2.22;;;1.60;;
82560;SDS011;72228;51.208;10.468;2024-02-04T07:18:29;2.88;;;1.33;;
82560;SDS011;72228;51.208;10.468;2024-02-04T07:20:56;1.70;;;1.25;;
82560;SDS011;72228;51.208;10.468;2024-02-04T07:23:22;4.10;;;1.65;;
82560;SDS011;72228;51.208;10.468;2024-02-04T07:25:48;2.55;;;1.70;;
82560;SDS011;72228;51.208;10.468;2024-02-04T07:28:14;2.58;;;1.73;;
82560;SDS011;72228;51.208;10.468;2024-02-04T07:30:40;5.15;;;3.60;;
82560;SDS011;72228;51.208;10.468;2024-02-04T07:33:06;3.28;;;1.65;;
82560;SDS011;72228;51.208;10.468;2024-02-04T07:35:32;3.78;;;2.17;;
82560;SDS011;72228;51.208;10.468;2024-02-04T07:37:58;2.85;;;1.80;;
82560;SDS011;72228;51.208;10.468;2024-02-04T07:40:24;2.28;;;1.60;;
82560;SDS011;72228;51.208;10.468;2024-02-04T07:42:50;3.33;;;2.17;;
82560;SDS011;72228;51.208;10.468;2024-02-04T07:45:16;4.22;;;2.65;;
82560;SDS011;72228;51.208;10.468;2024-02-04T07:47:42;3.30;;;2.00;;
82560;SDS011;72228;51.208;10.468;2024-02-04T07:50:08;3.35;;;2.00;;
82560;SDS011;72228;51.208;10.468;2024-02-04T07:52:34;6.38;;;3.58;;
82560;SDS011;72228;51.208;10.468;2024-02-04T07:55:00;3.60;;;2.20;;
82560;SDS011;72228;51.208;10.468;2024-02-04T07:57:26;3.00;;;1.80;;
82560;SDS011;72228;51.208;10.468;2024-02-04T07:59:51;2.22;;;1.42;;
82560;SDS011;72228;51.208;10.468;2024-02-04T08:02:17;2.45;;;1.50;;
82560;SDS011;72228;51.208;10.468;2024-02-04T08:04:43;4.00;;;1.77;;
82560;SDS011;72228;51.208;10.468;2024-02-04T08:10:01;3.80;;;1.67;;
82560;SDS011;72228;51.208;10.468;2024-02-04T08:12:27;2.30;;;1.48;;
82560;SDS011;72228;51.208;10.468;2024-02-04T08:14:53;2.40;;;1.80;;
82560;SDS011;72228;51.208;10.468;2024-02-04T08:17:18;2.60;;;1.85;;
82560;SDS011;72228;51.208;10.468;2024-02-04T08:19:44;4.10;;;2.95;;
82560;SDS011;72228;51.208;10.468;2024-02-04T08:22:10;1.38;;;0.90;;
82560;SDS011;72228;51.208;10.468;2024-02-04T08:24:36;1.58;;;1.33;;
82560;SDS011;72228;51.208;10.468;2024-02-04T08:27:02;2.00;;;1.30;;
82560;SDS011;72228;51.208;10.468;2024-02-04T08:29:29;1.52;;;1.05;;
82560;SDS011;72228;51.208;10.468;2024-02-04T08:31:54;2.13;;;1.40;;
82560;SDS011;72228;51.208;10.468;2024-02-04T08:34:20;2.90;;;1.25;;
82560;SDS011;72228;51.208;10.468;2024-02-04T08:36:49;1.90;;;1.33;;
82560;SDS011;72228;51.208;10.468;2024-02-04T08:39:16;1.70;;;1.25;;
82560;SDS011;72228;51.208;10.468;2024-02-04T08:41:42;4.20;;;2.20;;
82560;SDS011;72228;51.208;10.468;2024-02-04T08:44:08;2.28;;;1.50;;
82560;SDS011;72228;51.208;10.468;2024-02-04T08:46:34;2.53;;;2.00;;
82560;SDS011;72228;51.208;10.468;2024-02-04T08:48:59;2.47;;;1.75;;
82560;SDS011;72228;51.208;10.468;2024-02-04T08:51:26;1.67;;;1.20;;
82560;SDS011;72228;51.208;10.468;2024-02-04T08:53:53;2.60;;;1.52;;
82560;SDS011;72228;51.208;10.468;2024-02-04T08:56:19;1.73;;;1.20;;
82560;SDS011;72228;51.208;10.468;2024-02-04T08:58:45;12.45;;;1.85;;
82560;SDS011;72228;51.208;10.468;2024-02-04T09:01:11;4.07;;;2.03;;
82560;SDS011;72228;51.208;10.468;2024-02-04T09:03:37;4.13;;;1.60;;
82560;SDS011;72228;51.208;10.468;2024-02-04T09:06:03;3.25;;;1.63;;
82560;SDS011;72228;51.208;10.468;2024-02-04T09:08:29;2.42;;;1.98;;
82560;SDS011;72228;51.208;10.468;2024-02-04T09:10:54;3.15;;;2.00;;
82560;SDS011;72228;51.208;10.468;2024-02-04T09:13:21;3.85;;;1.90;;
82560;SDS011;72228;51.208;10.468;2024-02-04T09:15:48;5.72;;;1.77;;
82560;SDS011;72228;51.208;10.468;2024-02-04T09:18:15;3.20;;;1.70;;
82560;SDS011;72228;51.208;10.468;2024-02-04T09:20:41;4.38;;;2.00;;
82560;SDS011;72228;51.208;10.468;2024-02-04T09:23:07;2.97;;;2.00;;
82560;SDS011;72228;51.208;10.468;2024-02-04T09:25:33;2.22;;;1.75;;
82560;SDS011;72228;51.208;10.468;2024-02-04T09:27:59;3.30;;;2.10;;
82560;SDS011;72228;51.208;10.468;2024-02-04T09:30:25;3.10;;;1.70;;
82560;SDS011;72228;51.208;10.468;2024-02-04T09:32:50;2.85;;;2.25;;
82560;SDS011;72228;51.208;10.468;2024-02-04T09:35:16;2.50;;;1.88;;
82560;SDS011;72228;51.208;10.468;2024-02-04T09:37:42;3.17;;;1.45;;
82560;SDS011;72228;51.208;10.468;2024-02-04T09:40:08;3.20;;;1.90;;
82560;SDS011;72228;51.208;10.468;2024-02-04T09:42:35;2.65;;;1.77;;
82560;SDS011;72228;51.208;10.468;2024-02-04T09:45:00;2.75;;;1.88;;
82560;SDS011;72228;51.208;10.468;2024-02-04T09:47:27;4.90;;;2.20;;
82560;SDS011;72228;51.208;10.468;2024-02-04T09:49:54;3.80;;;2.13;;
82560;SDS011;72228;51.208;10.468;2024-02-04T09:52:23;4.60;;;1.98;;
82560;SDS011;72228;51.208;10.468;2024-02-04T09:54:57;4.22;;;2.03;;
82560;SDS011;72228;51.208;10.468;2024-02-04T09:57:25;3.25;;;1.75;;
82560;SDS011;72228;51.208;10.468;2024-02-04T09:59:51;3.60;;;2.45;;
82560;SDS011;72228;51.208;10.468;2024-02-04T10:02:17;3.33;;;2.13;;
82560;SDS011;72228;51.208;10.468;2024-02-04T10:04:44;4.18;;;2.63;;
82560;SDS011;72228;51.208;10.468;2024-02-04T10:07:10;3.25;;;2.13;;
82560;SDS011;72228;51.208;10.468;2024-02-04T10:09:39;4.55;;;2.33;;
82560;SDS011;72228;51.208;10.468;2024-02-04T10:12:05;3.85;;;2.38;;
82560;SDS011;72228;51.208;10.468;2024-02-04T10:14:31;2.75;;;2.00;;
82560;SDS011;72228;51.208;10.468;2024-02-04T10:16:57;4.88;;;2.80;;
82560;SDS011;72228;51.208;10.468;2024-02-04T10:19:26;3.25;;;2.30;;
82560;SDS011;72228;51.208;10.468;2024-02-04T10:22:01;3.55;;;2.53;;
82560;SDS011;72228;51.208;10.468;2024-02-04T10:24:28;3.53;;;2.40;;
82560;SDS011;72228;51.208;10.468;2024-02-04T10:26:55;7.47;;;2.63;;
82560;SDS011;72228;51.208;10.468;2024-02-04T10:29:22;5.32;;;3.28;;
82560;SDS011;72228;51.208;10.468;2024-02-04T10:31:52;7.82;;;4.20;;
82560;SDS011;72228;51.208;10.468;2024-02-04T10:34:25;6.03;;;3.28;;
82560;SDS011;72228;51.208;10.468;2024-02-04T10:36:53;20.90;;;7.60;;
82560;SDS011;72228;51.208;10.468;2024-02-04T10:39:19;16.48;;;6.68;;
82560;SDS011;72228;51.208;10.468;2024-02-04T10:41:50;8.90;;;4.60;;
82560;SDS011;72228;51.208;10.468;2024-02-04T10:44:18;4.53;;;3.13;;
82560;SDS011;72228;51.208;10.468;2024-02-04T10:46:47;3.80;;;2.33;;
82560;SDS011;72228;51.208;10.468;2024-02-04T10:49:15;6.55;;;4.00;;
82560;SDS011;72228;51.208;10.468;2024-02-04T10:51:42;3.60;;;2.38;;
82560;SDS011;72228;51.208;10.468;2024-02-04T10:54:08;2.95;;;1.88;;
82560;SDS011;72228;51.208;10.468;2024-02-04T10:56:43;4.07;;;2.00;;
82560;SDS011;72228;51.208;10.468;2024-02-04T10:59:17;2.47;;;1.80;;
82560;SDS011;72228;51.208;10.468;2024-02-04T11:01:45;3.30;;;1.73;;
82560;SDS011;72228;51.208;10.468;2024-02-04T11:04:14;2.83;;;1.90;;
82560;SDS011;72228;51.208;10.468;2024-02-04T11:06:42;2.55;;;1.80;;
82560;SDS011;72228;51.208;10.468;2024-02-04T11:09:09;3.67;;;2.53;;
82560;SDS011;72228;51.208;10.468;2024-02-04T11:11:37;7.85;;;4.72;;
82560;SDS011;72228;51.208;10.468;2024-02-04T11:14:06;5.25;;;3.80;;
82560;SDS011;72228;51.208;10.468;2024-02-04T11:22:26;1.85;;;1.30;;
82560;SDS011;72228;51.208;10.468;2024-02-04T11:25:11;3.75;;;2.63;;
82560;SDS011;72228;51.208;10.468;2024-02-04T11:27:57;2.90;;;2.00;;
82560;SDS011;72228;51.208;10.468;2024-02-04T11:30:23;3.50;;;2.70;;
82560;SDS011;72228;51.208;10.468;2024-02-04T11:32:49;9.00;;;4.22;;
82560;SDS011;72228;51.208;10.468;2024-02-04T11:35:16;4.10;;;2.42;;
82560;SDS011;72228;51.208;10.468;2024-02-04T11:37:42;2.67;;;1.77;;
82560;SDS011;72228;51.208;10.468;2024-02-04T11:40:14;2.10;;;1.77;;
82560;SDS011;72228;51.208;10.468;2024-02-04T11:42:45;3.53;;;2.08;;
82560;SDS011;72228;51.208;10.468;2024-02-04T11:45:11;5.78;;;2.45;;
82560;SDS011;72228;51.208;10.468;2024-02-04T11:47:40;2.97;;;2.30;;
82560;SDS011;72228;51.208;10.468;2024-02-04T11:50:06;3.95;;;2.20;;
82560;SDS011;72228;51.208;10.468;2024-02-04T11:52:34;3.25;;;2.20;;
82560;SDS011;72228;51.208;10.468;2024-02-04T11:55:00;24.70;;;4.20;;
82560;SDS011;72228;51.208;10.468;2024-02-04T11:57:27;4.55;;;2.10;;
82560;SDS011;72228;51.208;10.468;2024-02-04T11:59:54;4.07;;;2.30;;
82560;SDS011;72228;51.208;10.468;2024-02-04T12:02:24;2.58;;;1.65;;
82560;SDS011;72228;51.208;10.468;2024-02-04T12:04:49;2.25;;;1.75;;
82560;SDS011;72228;51.208;10.468;2024-02-04T12:07:16;2.92;;;1.98;;
82560;SDS011;72228;51.208;10.468;2024-02-04T12:09:43;2.72;;;2.00;;
82560;SDS011;72228;51.208;10.468;2024-02-04T12:12:09;2.25;;;1.73;;
82560;SDS011;72228;51.208;10.468;2024-02-04T12:14:36;2.00;;;1.42;;
82560;SDS011;72228;51.208;10.468;2024-02-04T12:17:10;2.72;;;1.70;;
82560;SDS011;72228;51.208;10.468;2024-02-04T12:19:36;2.78;;;1.95;;
82560;SDS011;72228;51.208;10.468;2024-02-04T12:22:04;2.42;;;1.92;;
82560;SDS011;72228;51.208;10.468;2024-02-04T12:24:35;3.45;;;1.58;;
82560;SDS011;72228;51.208;10.468;2024-02-04T12:27:03;2.97;;;1.80;;
82560;SDS011;72228;51.208;10.468;2024-02-04T12:29:29;1.70;;;1.33;;
82560;SDS011;72228;51.208;10.468;2024-02-04T12:32:00;2.33;;;2.10;;
82560;SDS011;72228;51.208;10.468;2024-02-04T12:34:27;7.30;;;3.58;;
82560;SDS011;72228;51.208;10.468;2024-02-04T12:36:59;10.65;;;6.47;;
82560;SDS011;72228;51.208;10.468;2024-02-04T12:39:26;15.63;;;6.78;;
82560;SDS011;72228;51.208;10.468;2024-02-04T12:41:52;2.60;;;1.70;;
82560;SDS011;72228;51.208;10.468;2024-02-04T12:44:19;2.40;;;1.92;;
82560;SDS011;72228;51.208;10.468;2024-02-04T12:46:45;2.95;;;1.80;;
82560;SDS011;72228;51.208;10.468;2024-02-04T12:49:11;2.28;;;1.45;;
82560;SDS011;72228;51.208;10.468;2024-02-04T12:51:44;4.10;;;2.70;;
82560;SDS011;72228;51.208;10.468;2024-02-04T12:54:11;2.78;;;2.35;;
82560;SDS011;72228;51.208;10.468;2024-02-04T12:57:20;3.40;;;2.10;;
82560;SDS011;72228;51.208;10.468;2024-02-04T12:59:33;7.32;;;2.33;;
82560;SDS011;72228;51.208;10.468;2024-02-04T13:02:06;5.00;;;2.45;;
82560;SDS011;72228;51.208;10.468;2024-02-04T13:04:37;4.10;;;2.78;;
82560;SDS011;72228;51.208;10.468;2024-02-04T13:07:10;3.83;;;3.15;;
82560;SDS011;72228;51.208;10.468;2024-02-04T13:09:42;5.47;;;3.65;;
82560;SDS011;72228;51.208;10.468;2024-02-04T13:12:09;5.57;;;3.75;;
82560;SDS011;72228;51.208;10.468;2024-02-04T13:14:36;4.28;;;2.42;;
82560;SDS011;72228;51.208;10.468;2024-02-04T13:17:07;7.82;;;3.63;;
82560;SDS011;72228;51.208;10.468;2024-02-04T13:19:33;5.45;;;3.17;;
82560;SDS011;72228;51.208;10.468;2024-02-04T13:22:02;5.22;;;2.50;;
82560;SDS011;72228;51.208;10.468;2024-02-04T13:24:29;6.97;;;3.67;;
82560;SDS011;72228;51.208;10.468;2024-02-04T13:26:56;4.85;;;2.65;;
82560;SDS011;72228;51.208;10.468;2024-02-04T13:29:23;7.50;;;4.03;;
82560;SDS011;72228;51.208;10.468;2024-02-04T13:31:49;5.38;;;2.05;;
82560;SDS011;72228;51.208;10.468;2024-02-04T13:34:15;6.68;;;3.83;;
82560;SDS011;72228;51.208;10.468;2024-02-04T13:36:42;4.85;;;3.03;;
82560;SDS011;72228;51.208;10.468;2024-02-04T13:39:09;16.60;;;7.32;;
82560;SDS011;72228;51.208;10.468;2024-02-04T13:41:35;12.15;;;6.38;;
82560;SDS011;72228;51.208;10.468;2024-02-04T13:44:01;30.88;;;16.25;;
82560;SDS011;72228;51.208;10.468;2024-02-04T13:46:27;81.93;;;36.97;;
82560;SDS011;72228;51.208;10.468;2024-02-04T13:48:53;53.45;;;20.83;;
82560;SDS011;72228;51.208;10.468;2024-02-04T13:51:19;47.90;;;21.80;;
82560;SDS011;72228;51.208;10.468;2024-02-04T13:53:45;77.40;;;33.25;;
82560;SDS011;72228;51.208;10.468;2024-02-04T13:56:11;30.13;;;15.35;;
82560;SDS011;72228;51.208;10.468;2024-02-04T13:58:37;13.57;;;5.32;;
82560;SDS011;72228;51.208;10.468;2024-02-04T14:01:03;15.70;;;6.80;;
82560;SDS011;72228;51.208;10.468;2024-02-04T14:03:30;5.85;;;2.97;;
82560;SDS011;72228;51.208;10.468;2024-02-04T14:05:57;22.60;;;10.32;;
82560;SDS011;72228;51.208;10.468;2024-02-04T14:08:23;34.15;;;14.93;;
82560;SDS011;72228;51.208;10.468;2024-02-04T14:10:50;31.92;;;14.60;;
82560;SDS011;72228;51.208;10.468;2024-02-04T14:13:15;7.80;;;3.90;;
82560;SDS011;72228;51.208;10.468;2024-02-04T14:15:41;14.13;;;6.43;;
82560;SDS011;72228;51.208;10.468;2024-02-04T14:18:09;35.25;;;14.52;;
82560;SDS011;72228;51.208;10.468;2024-02-04T14:20:35;22.77;;;9.82;;
82560;SDS011;72228;51.208;10.468;2024-02-04T14:23:01;29.52;;;12.85;;
82560;SDS011;72228;51.208;10.468;2024-02-04T14:25:27;48.92;;;19.05;;
82560;SDS011;72228;51.208;10.468;2024-02-04T14:27:53;16.48;;;7.25;;
82560;SDS011;72228;51.208;10.468;2024-02-04T14:30:20;12.10;;;5.47;;
82560;SDS011;72228;51.208;10.468;2024-02-04T14:32:46;12.75;;;6.28;;
82560;SDS011;72228;51.208;10.468;2024-02-04T14:35:12;31.02;;;13.80;;
82560;SDS011;72228;51.208;10.468;2024-02-04T14:37:38;24.02;;;9.13;;
82560;SDS011;72228;51.208;10.468;2024-02-04T14:40:08;23.42;;;9.13;;
82560;SDS011;72228;51.208;10.468;2024-02-04T14:42:35;28.95;;;11.25;;
82560;SDS011;72228;51.208;10.468;2024-02-04T14:45:02;104.38;;;40.95;;
82560;SDS011;72228;51.208;10.468;2024-02-04T14:47:29;11.05;;;7.50;;
82560;SDS011;72228;51.208;10.468;2024-02-04T14:49:55;5.30;;;3.95;;